AZA21 EHAM-LIPZ
Flight info
| Callsign | AZA21 |
|---|---|
| Flight time | 1h 8m |
| Altitude | 37000 |
| Route | EDUPO Z739 MISGO DCT ASBON DCT TUSUK DCT ULNOK L607 ABUKA DCT TEDGO DCT BATUB M738 NATAG/N0429F190 M738 ADOSA L612 ALBET |
| Aircraft | B77W/H-SDE1E2E3FGHIJ2J3J4J5M1RWXY/LB1D1 |
Departure
| Time | 2026-04-28 14:21 |
|---|---|
| Airport | Amsterdam Airport Schiphol (EHAM) |
Arrival
| Time | 2026-04-28 15:29 |
|---|---|
| Airport | Venice Marco Polo Airport (LIPZ) |
| Time | Latitude | Longitude | Altitude | Speed | Heading |
|---|---|---|---|---|---|
| 2026-04-28 13:43 | 52.30924 | 4.76631 | 4 ft | 0 kts | 182° |
| 2026-04-28 14:05 | 52.30935 | 4.76632 | 4 ft | 4 kts | 194° |
| 2026-04-28 14:05 | 52.30957 | 4.76652 | 7 ft | 4 kts | 222° |
| 2026-04-28 14:05 | 52.30978 | 4.76681 | 6 ft | 4 kts | 222° |
| 2026-04-28 14:05 | 52.30995 | 4.76713 | 6 ft | 4 kts | 250° |
| 2026-04-28 14:06 | 52.31000 | 4.76754 | 6 ft | 4 kts | 259° |
| 2026-04-28 14:06 | 52.31009 | 4.76789 | 7 ft | 3 kts | 214° |
| 2026-04-28 14:06 | 52.31031 | 4.76813 | 6 ft | 4 kts | 214° |
| 2026-04-28 14:06 | 52.31054 | 4.76838 | 6 ft | 3 kts | 214° |
| 2026-04-28 14:07 | 52.31074 | 4.76863 | 6 ft | 4 kts | 232° |
| 2026-04-28 14:07 | 52.31085 | 4.76901 | 6 ft | 4 kts | 264° |
| 2026-04-28 14:07 | 52.31085 | 4.76942 | 6 ft | 4 kts | 272° |
| 2026-04-28 14:07 | 52.31084 | 4.76986 | 5 ft | 4 kts | 273° |
| 2026-04-28 14:08 | 52.31082 | 4.77030 | 4 ft | 4 kts | 274° |
| 2026-04-28 14:08 | 52.31081 | 4.77072 | 4 ft | 2 kts | 273° |
| 2026-04-28 14:08 | 52.31080 | 4.77076 | 4 ft | 0 kts | 273° |
| 2026-04-28 14:11 | 52.31081 | 4.77063 | 4 ft | 2 kts | 273° |
| 2026-04-28 14:11 | 52.31082 | 4.77036 | 4 ft | 3 kts | 273° |
| 2026-04-28 14:11 | 52.31086 | 4.76997 | 5 ft | 4 kts | 287° |
| 2026-04-28 14:11 | 52.31099 | 4.76963 | 5 ft | 4 kts | 310° |
| 2026-04-28 14:12 | 52.31121 | 4.76943 | 4 ft | 4 kts | 341° |
| 2026-04-28 14:12 | 52.31149 | 4.76949 | 4 ft | 4 kts | 17° |
| 2026-04-28 14:12 | 52.31174 | 4.76970 | 4 ft | 4 kts | 30° |
| 2026-04-28 14:12 | 52.31199 | 4.76995 | 4 ft | 4 kts | 31° |
| 2026-04-28 14:13 | 52.31224 | 4.77021 | 4 ft | 5 kts | 32° |
| 2026-04-28 14:13 | 52.31270 | 4.77071 | 4 ft | 9 kts | 34° |
| 2026-04-28 14:13 | 52.31323 | 4.77128 | 4 ft | 9 kts | 32° |
| 2026-04-28 14:13 | 52.31377 | 4.77177 | 4 ft | 9 kts | 22° |
| 2026-04-28 14:14 | 52.31439 | 4.77188 | 4 ft | 9 kts | 353° |
| 2026-04-28 14:14 | 52.31478 | 4.77113 | 4 ft | 9 kts | 285° |
| 2026-04-28 14:14 | 52.31481 | 4.76998 | 4 ft | 14 kts | 266° |
| 2026-04-28 14:14 | 52.31474 | 4.76792 | 4 ft | 19 kts | 266° |
| 2026-04-28 14:15 | 52.31467 | 4.76574 | 4 ft | 19 kts | 267° |
| 2026-04-28 14:15 | 52.31460 | 4.76356 | 4 ft | 19 kts | 266° |
| 2026-04-28 14:15 | 52.31451 | 4.76123 | 4 ft | 22 kts | 266° |
| 2026-04-28 14:15 | 52.31442 | 4.75879 | 4 ft | 22 kts | 266° |
| 2026-04-28 14:16 | 52.31433 | 4.75635 | 4 ft | 22 kts | 266° |
| 2026-04-28 14:16 | 52.31424 | 4.75403 | 4 ft | 19 kts | 266° |
| 2026-04-28 14:16 | 52.31418 | 4.75215 | 4 ft | 9 kts | 267° |
| 2026-04-28 14:16 | 52.31416 | 4.75145 | 4 ft | 5 kts | 266° |
| 2026-04-28 14:17 | 52.31413 | 4.75085 | 4 ft | 6 kts | 266° |
| 2026-04-28 14:17 | 52.31410 | 4.74983 | 4 ft | 13 kts | 268° |
| 2026-04-28 14:17 | 52.31406 | 4.74828 | 4 ft | 13 kts | 267° |
| 2026-04-28 14:17 | 52.31415 | 4.74699 | 4 ft | 11 kts | 306° |
| 2026-04-28 14:18 | 52.31487 | 4.74664 | 4 ft | 9 kts | 4° |
| 2026-04-28 14:18 | 52.31539 | 4.74665 | 4 ft | 0 kts | 359° |
| 2026-04-28 14:19 | 52.31558 | 4.74664 | 4 ft | 6 kts | 358° |
| 2026-04-28 14:19 | 52.31604 | 4.74666 | 4 ft | 7 kts | 7° |
| 2026-04-28 14:19 | 52.31646 | 4.74695 | 4 ft | 7 kts | 38° |
| 2026-04-28 14:19 | 52.31667 | 4.74762 | 4 ft | 7 kts | 78° |
| 2026-04-28 14:20 | 52.31670 | 4.74830 | 3 ft | 0 kts | 86° |
| 2026-04-28 14:20 | 52.31670 | 4.74832 | 3 ft | 0 kts | 86° |
| 2026-04-28 14:20 | 52.31671 | 4.74859 | 3 ft | 12 kts | 86° |
| 2026-04-28 14:20 | 52.31693 | 4.75519 | 1 ft | 113 kts | 88° |
| 2026-04-28 14:21 | 52.31748 | 4.77367 | 104 ft | 202 kts | 84° |
| 2026-04-28 14:21 | 52.31841 | 4.79880 | 1041 ft | 223 kts | 84° |
| 2026-04-28 14:21 | 52.31937 | 4.82286 | 2200 ft | 211 kts | 83° |
| 2026-04-28 14:21 | 52.32033 | 4.84742 | 2801 ft | 222 kts | 85° |
| 2026-04-28 14:22 | 52.31883 | 4.87291 | 3332 ft | 229 kts | 102° |
| 2026-04-28 14:22 | 52.31332 | 4.89726 | 3862 ft | 230 kts | 110° |
| 2026-04-28 14:22 | 52.30682 | 4.92148 | 4180 ft | 234 kts | 111° |
| 2026-04-28 14:22 | 52.30023 | 4.94587 | 4577 ft | 236 kts | 111° |
| 2026-04-28 14:23 | 52.29377 | 4.97034 | 5019 ft | 233 kts | 108° |
| 2026-04-28 14:23 | 52.28900 | 4.99553 | 5449 ft | 233 kts | 104° |
| 2026-04-28 14:23 | 52.28471 | 5.02134 | 5935 ft | 235 kts | 104° |
| 2026-04-28 14:23 | 52.28036 | 5.04765 | 6751 ft | 243 kts | 104° |
| 2026-04-28 14:24 | 52.27592 | 5.07395 | 7705 ft | 243 kts | 105° |
| 2026-04-28 14:24 | 52.27128 | 5.10115 | 8651 ft | 247 kts | 104° |
| 2026-04-28 14:24 | 52.26673 | 5.12765 | 9628 ft | 247 kts | 104° |
| 2026-04-28 14:24 | 52.26201 | 5.15491 | 10460 ft | 250 kts | 104° |
| 2026-04-28 14:25 | 52.25715 | 5.18274 | 11110 ft | 260 kts | 105° |
| 2026-04-28 14:25 | 52.25209 | 5.21154 | 11324 ft | 270 kts | 105° |
| 2026-04-28 14:25 | 52.24671 | 5.24141 | 11440 ft | 278 kts | 108° |
| 2026-04-28 14:25 | 52.23657 | 5.26978 | 11572 ft | 305 kts | 126° |
| 2026-04-28 14:26 | 52.22276 | 5.29804 | 11787 ft | 333 kts | 126° |
| 2026-04-28 14:26 | 52.20768 | 5.32885 | 12058 ft | 359 kts | 127° |
| 2026-04-28 14:26 | 52.19191 | 5.36122 | 12857 ft | 367 kts | 127° |
| 2026-04-28 14:26 | 52.17600 | 5.39411 | 13873 ft | 370 kts | 126° |
| 2026-04-28 14:27 | 52.15997 | 5.42747 | 14723 ft | 376 kts | 125° |
| 2026-04-28 14:27 | 52.14371 | 5.46145 | 15563 ft | 383 kts | 126° |
| 2026-04-28 14:27 | 52.12727 | 5.49586 | 16380 ft | 389 kts | 126° |
| 2026-04-28 14:27 | 52.11052 | 5.53095 | 17230 ft | 393 kts | 126° |
| 2026-04-28 14:28 | 52.09363 | 5.56628 | 18019 ft | 401 kts | 127° |
| 2026-04-28 14:28 | 52.07634 | 5.60241 | 18781 ft | 406 kts | 126° |
| 2026-04-28 14:28 | 52.05897 | 5.63867 | 19638 ft | 407 kts | 126° |
| 2026-04-28 14:28 | 52.04146 | 5.67521 | 20400 ft | 411 kts | 126° |
| 2026-04-28 14:29 | 52.02400 | 5.71159 | 21085 ft | 417 kts | 126° |
| 2026-04-28 14:29 | 52.00617 | 5.74869 | 21755 ft | 422 kts | 127° |
| 2026-04-28 14:29 | 51.98790 | 5.78665 | 22448 ft | 428 kts | 127° |
| 2026-04-28 14:29 | 51.96943 | 5.82498 | 23009 ft | 435 kts | 127° |
| 2026-04-28 14:30 | 51.95060 | 5.86395 | 23661 ft | 440 kts | 126° |
| 2026-04-28 14:30 | 51.93156 | 5.90334 | 24194 ft | 446 kts | 127° |
| 2026-04-28 14:30 | 51.91235 | 5.94298 | 24777 ft | 448 kts | 126° |
| 2026-04-28 14:30 | 51.89302 | 5.98284 | 25258 ft | 451 kts | 127° |
| 2026-04-28 14:31 | 51.87360 | 6.02286 | 25238 ft | 455 kts | 127° |
| 2026-04-28 14:31 | 51.85388 | 6.06306 | 25229 ft | 454 kts | 129° |
| 2026-04-28 14:31 | 51.83319 | 6.10175 | 25226 ft | 454 kts | 131° |
| 2026-04-28 14:31 | 51.81220 | 6.13969 | 25228 ft | 453 kts | 131° |
| 2026-04-28 14:32 | 51.79115 | 6.17775 | 25220 ft | 453 kts | 131° |
| 2026-04-28 14:32 | 51.77022 | 6.21583 | 25220 ft | 453 kts | 130° |
| 2026-04-28 14:32 | 51.74936 | 6.25392 | 25221 ft | 453 kts | 130° |
| 2026-04-28 14:32 | 51.72853 | 6.29198 | 25222 ft | 453 kts | 131° |
| 2026-04-28 14:33 | 51.70754 | 6.33030 | 25464 ft | 458 kts | 131° |
| 2026-04-28 14:33 | 51.68631 | 6.36899 | 25986 ft | 462 kts | 131° |
| 2026-04-28 14:33 | 51.66495 | 6.40788 | 26574 ft | 464 kts | 130° |
| 2026-04-28 14:33 | 51.64347 | 6.44688 | 27110 ft | 467 kts | 130° |
| 2026-04-28 14:34 | 51.60021 | 6.52522 | 28079 ft | 475 kts | 131° |
| 2026-04-28 14:34 | 51.57816 | 6.56504 | 28567 ft | 478 kts | 131° |
| 2026-04-28 14:34 | 51.56320 | 6.59205 | 28881 ft | 480 kts | 131° |
| 2026-04-28 14:35 | 51.53367 | 6.64526 | 29461 ft | 484 kts | 131° |
| 2026-04-28 14:35 | 51.51120 | 6.68569 | 29858 ft | 486 kts | 131° |
| 2026-04-28 14:35 | 51.48860 | 6.72632 | 30243 ft | 489 kts | 131° |
| 2026-04-28 14:35 | 51.46582 | 6.76722 | 30513 ft | 493 kts | 131° |
| 2026-04-28 14:36 | 51.44301 | 6.80806 | 30869 ft | 494 kts | 131° |
| 2026-04-28 14:36 | 51.41937 | 6.84856 | 31119 ft | 497 kts | 136° |
| 2026-04-28 14:36 | 51.39336 | 6.88525 | 31556 ft | 496 kts | 141° |
| 2026-04-28 14:36 | 51.36553 | 6.91777 | 31897 ft | 497 kts | 148° |
| 2026-04-28 14:37 | 51.33615 | 6.94698 | 32274 ft | 496 kts | 150° |
| 2026-04-28 14:37 | 51.30681 | 6.97580 | 32756 ft | 493 kts | 150° |
| 2026-04-28 14:37 | 51.27767 | 7.00450 | 33293 ft | 490 kts | 150° |
| 2026-04-28 14:37 | 51.24868 | 7.03320 | 33745 ft | 489 kts | 150° |
| 2026-04-28 14:38 | 51.21974 | 7.06201 | 34123 ft | 490 kts | 150° |
| 2026-04-28 14:38 | 51.19088 | 7.09081 | 34436 ft | 490 kts | 150° |
| 2026-04-28 14:38 | 51.16234 | 7.11932 | 34725 ft | 490 kts | 150° |
| 2026-04-28 14:38 | 51.13339 | 7.14822 | 34956 ft | 492 kts | 150° |
| 2026-04-28 14:39 | 51.10440 | 7.17710 | 35204 ft | 492 kts | 150° |
| 2026-04-28 14:39 | 51.07534 | 7.20601 | 35560 ft | 490 kts | 150° |
| 2026-04-28 14:39 | 51.04640 | 7.23476 | 35876 ft | 490 kts | 150° |
| 2026-04-28 14:39 | 51.01749 | 7.26342 | 36123 ft | 490 kts | 150° |
| 2026-04-28 14:40 | 50.98850 | 7.29212 | 36383 ft | 491 kts | 150° |
| 2026-04-28 14:40 | 50.93051 | 7.34936 | 36898 ft | 491 kts | 150° |
| 2026-04-28 14:40 | 50.90150 | 7.37793 | 37089 ft | 492 kts | 150° |
| 2026-04-28 14:41 | 50.87233 | 7.40665 | 37141 ft | 494 kts | 149° |
| 2026-04-28 14:41 | 50.81425 | 7.46372 | 37148 ft | 490 kts | 150° |
| 2026-04-28 14:42 | 50.75644 | 7.52031 | 37174 ft | 487 kts | 150° |
| 2026-04-28 14:42 | 50.69922 | 7.57673 | 37168 ft | 487 kts | 149° |
| 2026-04-28 14:43 | 50.64256 | 7.63551 | 37184 ft | 488 kts | 148° |
| 2026-04-28 14:43 | 50.58581 | 7.69480 | 37171 ft | 490 kts | 149° |
| 2026-04-28 14:44 | 50.52877 | 7.75382 | 37171 ft | 491 kts | 149° |
| 2026-04-28 14:44 | 50.47136 | 7.81281 | 37167 ft | 493 kts | 149° |
| 2026-04-28 14:45 | 50.41389 | 7.87167 | 37163 ft | 494 kts | 149° |
| 2026-04-28 14:45 | 50.36601 | 7.92058 | 37149 ft | 495 kts | 149° |
| 2026-04-28 14:46 | 50.29872 | 7.98913 | 37162 ft | 496 kts | 149° |
| 2026-04-28 14:46 | 50.24094 | 8.04781 | 37150 ft | 496 kts | 149° |
| 2026-04-28 14:47 | 50.19242 | 8.09697 | 37152 ft | 495 kts | 149° |
| 2026-04-28 14:47 | 50.13484 | 8.15515 | 37146 ft | 495 kts | 150° |
| 2026-04-28 14:48 | 50.07616 | 8.21082 | 37142 ft | 493 kts | 152° |
| 2026-04-28 14:48 | 50.01690 | 8.26462 | 37147 ft | 493 kts | 152° |
| 2026-04-28 14:49 | 49.95766 | 8.31898 | 37152 ft | 494 kts | 152° |
| 2026-04-28 14:49 | 49.89859 | 8.37345 | 37129 ft | 495 kts | 152° |
| 2026-04-28 14:50 | 49.84371 | 8.42819 | 37128 ft | 498 kts | 145° |
| 2026-04-28 14:50 | 49.79217 | 8.50054 | 37140 ft | 501 kts | 138° |
| 2026-04-28 14:51 | 49.74070 | 8.57298 | 37117 ft | 499 kts | 148° |
| 2026-04-28 14:51 | 49.67913 | 8.61945 | 37139 ft | 490 kts | 166° |
| 2026-04-28 14:52 | 49.61324 | 8.63922 | 37139 ft | 485 kts | 175° |
| 2026-04-28 14:52 | 49.54639 | 8.65637 | 37145 ft | 487 kts | 174° |
| 2026-04-28 14:53 | 49.47978 | 8.67630 | 37146 ft | 491 kts | 169° |
| 2026-04-28 14:53 | 49.41512 | 8.71191 | 37146 ft | 497 kts | 160° |
| 2026-04-28 14:54 | 49.35234 | 8.75647 | 37135 ft | 497 kts | 160° |
| 2026-04-28 14:54 | 49.28945 | 8.80083 | 37115 ft | 496 kts | 160° |
| 2026-04-28 14:55 | 49.22653 | 8.84452 | 37093 ft | 496 kts | 160° |
| 2026-04-28 14:55 | 49.16362 | 8.88786 | 37061 ft | 496 kts | 161° |
| 2026-04-28 14:56 | 49.10107 | 8.93082 | 37080 ft | 496 kts | 161° |
| 2026-04-28 14:56 | 49.03819 | 8.97390 | 37071 ft | 496 kts | 161° |
| 2026-04-28 14:57 | 48.97514 | 9.01701 | 37065 ft | 496 kts | 161° |
| 2026-04-28 14:57 | 48.91215 | 9.05998 | 37047 ft | 496 kts | 162° |
| 2026-04-28 14:58 | 48.84904 | 9.10288 | 37053 ft | 497 kts | 162° |
| 2026-04-28 14:58 | 48.78589 | 9.14570 | 37049 ft | 497 kts | 162° |
| 2026-04-28 14:59 | 48.72266 | 9.18847 | 37052 ft | 498 kts | 162° |
| 2026-04-28 14:59 | 48.65928 | 9.23120 | 37046 ft | 499 kts | 161° |
| 2026-04-28 15:00 | 48.59518 | 9.27181 | 37047 ft | 496 kts | 167° |
| 2026-04-28 15:00 | 48.52976 | 9.30506 | 37055 ft | 497 kts | 167° |
| 2026-04-28 15:01 | 48.46440 | 9.33796 | 37058 ft | 498 kts | 167° |
| 2026-04-28 15:01 | 48.39861 | 9.37145 | 37060 ft | 499 kts | 167° |
| 2026-04-28 15:02 | 48.33286 | 9.40504 | 37067 ft | 499 kts | 167° |
| 2026-04-28 15:02 | 48.26719 | 9.43850 | 37061 ft | 498 kts | 167° |
| 2026-04-28 15:03 | 48.20172 | 9.47170 | 37075 ft | 495 kts | 167° |
| 2026-04-28 15:03 | 48.13646 | 9.50477 | 37076 ft | 495 kts | 167° |
| 2026-04-28 15:04 | 48.07127 | 9.53767 | 37065 ft | 495 kts | 167° |
| 2026-04-28 15:04 | 48.00777 | 9.57911 | 37069 ft | 502 kts | 156° |
| 2026-04-28 15:05 | 47.94928 | 9.63746 | 37065 ft | 507 kts | 148° |
| 2026-04-28 15:05 | 47.89256 | 9.69987 | 37074 ft | 506 kts | 148° |
| 2026-04-28 15:06 | 47.83564 | 9.76180 | 37059 ft | 506 kts | 149° |
| 2026-04-28 15:06 | 47.77863 | 9.82306 | 37034 ft | 505 kts | 149° |
| 2026-04-28 15:07 | 47.67387 | 9.93495 | 37050 ft | 504 kts | 149° |
| 2026-04-28 15:07 | 47.47313 | 10.14801 | 37057 ft | 504 kts | 149° |
| 2026-04-28 15:08 | 47.23731 | 10.36723 | 37106 ft | 501 kts | 153° |
| 2026-04-28 15:08 | 46.99306 | 10.55934 | 37005 ft | 490 kts | 169° |
| 2026-04-28 15:08 | 46.86243 | 10.61688 | 37116 ft | 492 kts | 168° |
| 2026-04-28 15:09 | 46.73142 | 10.67565 | 37167 ft | 494 kts | 168° |
| 2026-04-28 15:09 | 46.60939 | 10.71691 | 37105 ft | 496 kts | 173° |
| 2026-04-28 15:10 | 46.54217 | 10.73845 | 37148 ft | 495 kts | 172° |
| 2026-04-28 15:10 | 46.47547 | 10.76021 | 36882 ft | 485 kts | 172° |
| 2026-04-28 15:10 | 46.44262 | 10.77094 | 36278 ft | 483 kts | 172° |
| 2026-04-28 15:11 | 46.40983 | 10.78161 | 35666 ft | 482 kts | 173° |
| 2026-04-28 15:11 | 46.37702 | 10.79222 | 34914 ft | 485 kts | 173° |
| 2026-04-28 15:11 | 46.34398 | 10.80289 | 34129 ft | 489 kts | 173° |
| 2026-04-28 15:11 | 46.31070 | 10.81365 | 33212 ft | 491 kts | 173° |
| 2026-04-28 15:12 | 46.27721 | 10.82449 | 32333 ft | 493 kts | 172° |
| 2026-04-28 15:12 | 46.24362 | 10.83534 | 31427 ft | 495 kts | 172° |
| 2026-04-28 15:12 | 46.20986 | 10.84625 | 30545 ft | 497 kts | 172° |
| 2026-04-28 15:12 | 46.17636 | 10.85703 | 29925 ft | 492 kts | 172° |
| 2026-04-28 15:13 | 46.14307 | 10.86764 | 29288 ft | 486 kts | 172° |
| 2026-04-28 15:13 | 46.11021 | 10.87817 | 28627 ft | 479 kts | 171° |
| 2026-04-28 15:13 | 46.07795 | 10.88856 | 28060 ft | 471 kts | 172° |
| 2026-04-28 15:13 | 46.04617 | 10.89876 | 27457 ft | 466 kts | 171° |
| 2026-04-28 15:14 | 46.01505 | 10.90871 | 26884 ft | 462 kts | 171° |
| 2026-04-28 15:14 | 45.98375 | 10.91871 | 26274 ft | 458 kts | 171° |
| 2026-04-28 15:14 | 45.95290 | 10.92850 | 25720 ft | 454 kts | 171° |
| 2026-04-28 15:14 | 45.92209 | 10.93827 | 25159 ft | 451 kts | 171° |
| 2026-04-28 15:15 | 45.89141 | 10.94801 | 24588 ft | 449 kts | 171° |
| 2026-04-28 15:15 | 45.87079 | 10.95457 | 24195 ft | 448 kts | 171° |
| 2026-04-28 15:15 | 45.83064 | 10.96732 | 23366 ft | 445 kts | 171° |
| 2026-04-28 15:15 | 45.80054 | 10.97684 | 22795 ft | 441 kts | 171° |
| 2026-04-28 15:16 | 45.77053 | 10.98629 | 22151 ft | 438 kts | 171° |
| 2026-04-28 15:16 | 45.74094 | 10.99559 | 21630 ft | 433 kts | 171° |
| 2026-04-28 15:16 | 45.71157 | 11.00481 | 21059 ft | 430 kts | 171° |
| 2026-04-28 15:16 | 45.68291 | 11.01391 | 20510 ft | 424 kts | 169° |
| 2026-04-28 15:17 | 45.65544 | 11.02905 | 19913 ft | 428 kts | 152° |
| 2026-04-28 15:17 | 45.63171 | 11.05590 | 19419 ft | 435 kts | 135° |
| 2026-04-28 15:17 | 45.61368 | 11.09084 | 19083 ft | 438 kts | 123° |
| 2026-04-28 15:17 | 45.59851 | 11.12775 | 18890 ft | 435 kts | 123° |
| 2026-04-28 15:18 | 45.58287 | 11.16461 | 18652 ft | 433 kts | 124° |
| 2026-04-28 15:18 | 45.56681 | 11.20080 | 18389 ft | 430 kts | 125° |
| 2026-04-28 15:18 | 45.55063 | 11.23653 | 18105 ft | 428 kts | 125° |
| 2026-04-28 15:18 | 45.53446 | 11.27207 | 17657 ft | 427 kts | 125° |
| 2026-04-28 15:19 | 45.51833 | 11.30755 | 17083 ft | 425 kts | 125° |
| 2026-04-28 15:19 | 45.49691 | 11.35480 | 16367 ft | 420 kts | 124° |
| 2026-04-28 15:19 | 45.46547 | 11.42425 | 15302 ft | 413 kts | 124° |
| 2026-04-28 15:19 | 45.43444 | 11.49254 | 14535 ft | 407 kts | 125° |
| 2026-04-28 15:20 | 45.39946 | 11.55394 | 14091 ft | 388 kts | 130° |
| 2026-04-28 15:20 | 45.37766 | 11.61865 | 13561 ft | 343 kts | 114° |
| 2026-04-28 15:20 | 45.34948 | 11.66811 | 12786 ft | 312 kts | 136° |
| 2026-04-28 15:20 | 45.32038 | 11.71217 | 11899 ft | 298 kts | 134° |
| 2026-04-28 15:21 | 45.29242 | 11.75385 | 11076 ft | 284 kts | 138° |
| 2026-04-28 15:21 | 45.26301 | 11.78767 | 10249 ft | 272 kts | 146° |
| 2026-04-28 15:21 | 45.23042 | 11.81147 | 9218 ft | 262 kts | 174° |
| 2026-04-28 15:21 | 45.19752 | 11.83046 | 8155 ft | 265 kts | 131° |
| 2026-04-28 15:22 | 45.19055 | 11.87823 | 7699 ft | 248 kts | 70° |
| 2026-04-28 15:22 | 45.20791 | 11.91929 | 6824 ft | 243 kts | 54° |
| 2026-04-28 15:22 | 45.22758 | 11.95803 | 5652 ft | 238 kts | 50° |
| 2026-04-28 15:22 | 45.24921 | 11.99269 | 4558 ft | 230 kts | 47° |
| 2026-04-28 15:23 | 45.26991 | 12.02561 | 3500 ft | 218 kts | 49° |
| 2026-04-28 15:23 | 45.28923 | 12.05685 | 2973 ft | 198 kts | 49° |
| 2026-04-28 15:23 | 45.30609 | 12.08434 | 2971 ft | 179 kts | 49° |
| 2026-04-28 15:23 | 45.32185 | 12.11013 | 2924 ft | 163 kts | 49° |
| 2026-04-28 15:24 | 45.33037 | 12.12407 | 2993 ft | 166 kts | 49° |
| 2026-04-28 15:24 | 45.34351 | 12.14180 | 2969 ft | 154 kts | 41° |
| 2026-04-28 15:24 | 45.35838 | 12.16058 | 3016 ft | 144 kts | 42° |
| 2026-04-28 15:24 | 45.37406 | 12.18050 | 3049 ft | 155 kts | 43° |
| 2026-04-28 15:25 | 45.38685 | 12.19633 | 2891 ft | 157 kts | 39° |
| 2026-04-28 15:25 | 45.39519 | 12.20604 | 2563 ft | 150 kts | 40° |
| 2026-04-28 15:25 | 45.40307 | 12.21511 | 2295 ft | 144 kts | 41° |
| 2026-04-28 15:25 | 45.41037 | 12.22498 | 2081 ft | 146 kts | 45° |
| 2026-04-28 15:26 | 45.41762 | 12.23533 | 1864 ft | 151 kts | 46° |
| 2026-04-28 15:26 | 45.42529 | 12.24536 | 1612 ft | 150 kts | 41° |
| 2026-04-28 15:26 | 45.43310 | 12.25473 | 1417 ft | 144 kts | 45° |
| 2026-04-28 15:26 | 45.44062 | 12.26457 | 1264 ft | 148 kts | 45° |
| 2026-04-28 15:27 | 45.44827 | 12.27452 | 1138 ft | 150 kts | 46° |
| 2026-04-28 15:27 | 45.45576 | 12.28471 | 1067 ft | 148 kts | 47° |
| 2026-04-28 15:27 | 45.46323 | 12.29515 | 920 ft | 153 kts | 45° |
| 2026-04-28 15:27 | 45.47136 | 12.30511 | 710 ft | 154 kts | 42° |
| 2026-04-28 15:28 | 45.47928 | 12.31492 | 499 ft | 151 kts | 45° |
| 2026-04-28 15:28 | 45.48717 | 12.32512 | 267 ft | 150 kts | 45° |
| 2026-04-28 15:28 | 45.49478 | 12.33493 | 86 ft | 148 kts | 46° |
| 2026-04-28 15:28 | 45.50219 | 12.34464 | 27 ft | 130 kts | 42° |
| 2026-04-28 15:29 | 45.50750 | 12.35147 | 20 ft | 78 kts | 42° |
| 2026-04-28 15:29 | 45.51032 | 12.35506 | 24 ft | 42 kts | 41° |
| 2026-04-28 15:29 | 45.51180 | 12.35690 | 20 ft | 20 kts | 40° |
| 2026-04-28 15:29 | 45.51287 | 12.35776 | 20 ft | 16 kts | 14° |
| 2026-04-28 15:30 | 45.51374 | 12.35849 | 24 ft | 15 kts | 61° |
| 2026-04-28 15:30 | 45.51345 | 12.35913 | 21 ft | 5 kts | 180° |
| 2026-04-28 15:30 | 45.51307 | 12.35867 | 21 ft | 14 kts | 228° |
| 2026-04-28 15:30 | 45.51253 | 12.35792 | 19 ft | 17 kts | 223° |
| 2026-04-28 15:31 | 45.51168 | 12.35682 | 20 ft | 17 kts | 221° |
| 2026-04-28 15:31 | 45.51082 | 12.35573 | 21 ft | 17 kts | 222° |
| 2026-04-28 15:31 | 45.50999 | 12.35437 | 24 ft | 20 kts | 247° |
| 2026-04-28 15:31 | 45.50960 | 12.35248 | 24 ft | 20 kts | 250° |
| 2026-04-28 15:32 | 45.50876 | 12.35102 | 23 ft | 20 kts | 220° |
| 2026-04-28 15:32 | 45.50774 | 12.34970 | 24 ft | 20 kts | 224° |
| 2026-04-28 15:32 | 45.50674 | 12.34843 | 21 ft | 20 kts | 222° |
| 2026-04-28 15:32 | 45.50573 | 12.34713 | 20 ft | 20 kts | 222° |
| 2026-04-28 15:33 | 45.50473 | 12.34583 | 23 ft | 20 kts | 222° |
| 2026-04-28 15:33 | 45.50373 | 12.34453 | 26 ft | 19 kts | 223° |
| 2026-04-28 15:33 | 45.50330 | 12.34309 | 21 ft | 15 kts | 284° |
| 2026-04-28 15:33 | 45.50353 | 12.34218 | 21 ft | 3 kts | 289° |
| 2026-04-28 15:34 | 45.50359 | 12.34198 | 20 ft | 2 kts | 290° |
| 2026-04-28 15:34 | 45.50361 | 12.34188 | 22 ft | 1 kts | 289° |
| 2026-04-28 15:34 | 45.50361 | 12.34186 | 22 ft | 0 kts | 289° |